sensor_id;sensor_type;location;lat;lon;timestamp;temperature;humidity
34279;DHT22;20538;51.528;9.942;2023-12-14T00:01:21;6.70;99.90
34279;DHT22;20538;51.528;9.942;2023-12-14T00:03:47;6.70;99.90
34279;DHT22;20538;51.528;9.942;2023-12-14T00:06:14;6.60;99.90
34279;DHT22;20538;51.528;9.942;2023-12-14T00:08:40;6.50;99.90
34279;DHT22;20538;51.528;9.942;2023-12-14T00:11:10;6.50;99.90
34279;DHT22;20538;51.528;9.942;2023-12-14T00:13:36;6.60;99.90
34279;DHT22;20538;51.528;9.942;2023-12-14T00:16:02;6.50;99.90
34279;DHT22;20538;51.528;9.942;2023-12-14T00:18:28;6.40;99.90
34279;DHT22;20538;51.528;9.942;2023-12-14T00:20:54;6.50;99.90
34279;DHT22;20538;51.528;9.942;2023-12-14T00:23:20;6.40;99.90
34279;DHT22;20538;51.528;9.942;2023-12-14T00:25:46;6.40;99.90
34279;DHT22;20538;51.528;9.942;2023-12-14T00:28:11;6.30;99.90
34279;DHT22;20538;51.528;9.942;2023-12-14T00:30:37;6.40;99.90
34279;DHT22;20538;51.528;9.942;2023-12-14T00:33:03;6.30;99.90
34279;DHT22;20538;51.528;9.942;2023-12-14T00:35:28;6.40;99.90
34279;DHT22;20538;51.528;9.942;2023-12-14T00:37:54;6.40;99.90
34279;DHT22;20538;51.528;9.942;2023-12-14T00:40:19;6.30;99.90
34279;DHT22;20538;51.528;9.942;2023-12-14T00:42:45;6.20;99.90
34279;DHT22;20538;51.528;9.942;2023-12-14T00:45:11;6.20;99.90
34279;DHT22;20538;51.528;9.942;2023-12-14T00:47:37;6.10;99.90
34279;DHT22;20538;51.528;9.942;2023-12-14T00:50:02;6.20;99.90
34279;DHT22;20538;51.528;9.942;2023-12-14T00:52:28;6.30;99.90
34279;DHT22;20538;51.528;9.942;2023-12-14T00:54:54;6.30;99.90
34279;DHT22;20538;51.528;9.942;2023-12-14T00:57:20;6.40;99.90
34279;DHT22;20538;51.528;9.942;2023-12-14T00:59:45;6.20;99.90
34279;DHT22;20538;51.528;9.942;2023-12-14T01:02:11;6.20;99.90
34279;DHT22;20538;51.528;9.942;2023-12-14T01:04:37;6.10;99.90
34279;DHT22;20538;51.528;9.942;2023-12-14T01:07:03;6.00;99.90
34279;DHT22;20538;51.528;9.942;2023-12-14T01:09:29;6.10;99.90
34279;DHT22;20538;51.528;9.942;2023-12-14T01:11:55;6.00;99.90
34279;DHT22;20538;51.528;9.942;2023-12-14T01:14:20;6.00;99.90
34279;DHT22;20538;51.528;9.942;2023-12-14T01:16:46;5.90;99.90
34279;DHT22;20538;51.528;9.942;2023-12-14T01:19:11;5.90;99.90
34279;DHT22;20538;51.528;9.942;2023-12-14T01:21:37;5.90;99.90
34279;DHT22;20538;51.528;9.942;2023-12-14T01:24:03;5.80;99.90
34279;DHT22;20538;51.528;9.942;2023-12-14T01:26:28;5.80;99.90
34279;DHT22;20538;51.528;9.942;2023-12-14T01:28:54;5.80;99.90
34279;DHT22;20538;51.528;9.942;2023-12-14T01:31:19;5.80;99.90
34279;DHT22;20538;51.528;9.942;2023-12-14T01:33:48;5.90;99.90
34279;DHT22;20538;51.528;9.942;2023-12-14T01:36:25;6.00;99.90
34279;DHT22;20538;51.528;9.942;2023-12-14T01:38:51;5.90;99.90
34279;DHT22;20538;51.528;9.942;2023-12-14T01:41:17;5.90;99.90
34279;DHT22;20538;51.528;9.942;2023-12-14T01:43:43;5.80;99.90
34279;DHT22;20538;51.528;9.942;2023-12-14T01:46:09;5.80;99.90
34279;DHT22;20538;51.528;9.942;2023-12-14T01:48:35;5.70;99.90
34279;DHT22;20538;51.528;9.942;2023-12-14T01:51:01;5.80;99.90
34279;DHT22;20538;51.528;9.942;2023-12-14T01:53:26;5.70;99.90
34279;DHT22;20538;51.528;9.942;2023-12-14T01:55:52;5.70;99.90
34279;DHT22;20538;51.528;9.942;2023-12-14T01:58:18;5.70;99.90
34279;DHT22;20538;51.528;9.942;2023-12-14T02:01:03;5.60;99.90
34279;DHT22;20538;51.528;9.942;2023-12-14T02:03:29;5.60;99.90
34279;DHT22;20538;51.528;9.942;2023-12-14T02:05:55;5.70;99.90
34279;DHT22;20538;51.528;9.942;2023-12-14T02:08:23;5.60;99.90
34279;DHT22;20538;51.528;9.942;2023-12-14T02:10:49;5.60;99.90
34279;DHT22;20538;51.528;9.942;2023-12-14T02:13:15;5.70;99.90
34279;DHT22;20538;51.528;9.942;2023-12-14T02:15:40;5.60;99.90
34279;DHT22;20538;51.528;9.942;2023-12-14T02:18:06;5.60;99.90
34279;DHT22;20538;51.528;9.942;2023-12-14T02:20:31;5.60;99.90
34279;DHT22;20538;51.528;9.942;2023-12-14T02:22:57;5.60;99.90
34279;DHT22;20538;51.528;9.942;2023-12-14T02:25:23;5.70;99.90
34279;DHT22;20538;51.528;9.942;2023-12-14T02:27:50;5.70;99.90
34279;DHT22;20538;51.528;9.942;2023-12-14T02:30:17;5.70;99.90
34279;DHT22;20538;51.528;9.942;2023-12-14T02:32:43;5.60;99.90
34279;DHT22;20538;51.528;9.942;2023-12-14T02:35:09;5.50;99.90
34279;DHT22;20538;51.528;9.942;2023-12-14T02:37:35;5.50;99.90
34279;DHT22;20538;51.528;9.942;2023-12-14T02:40:06;5.50;99.90
34279;DHT22;20538;51.528;9.942;2023-12-14T02:42:32;5.60;99.90
34279;DHT22;20538;51.528;9.942;2023-12-14T02:44:58;5.60;99.90
34279;DHT22;20538;51.528;9.942;2023-12-14T02:47:24;5.50;99.90
34279;DHT22;20538;51.528;9.942;2023-12-14T02:49:50;5.50;99.90
34279;DHT22;20538;51.528;9.942;2023-12-14T02:52:15;5.50;99.90
34279;DHT22;20538;51.528;9.942;2023-12-14T02:54:41;5.50;99.90
34279;DHT22;20538;51.528;9.942;2023-12-14T02:57:07;5.40;99.90
34279;DHT22;20538;51.528;9.942;2023-12-14T02:59:32;5.40;99.90
34279;DHT22;20538;51.528;9.942;2023-12-14T03:01:58;5.40;99.90
34279;DHT22;20538;51.528;9.942;2023-12-14T03:04:23;5.40;99.90
34279;DHT22;20538;51.528;9.942;2023-12-14T03:06:49;5.40;99.90
34279;DHT22;20538;51.528;9.942;2023-12-14T03:09:15;5.40;99.90
34279;DHT22;20538;51.528;9.942;2023-12-14T03:11:40;5.30;99.90
34279;DHT22;20538;51.528;9.942;2023-12-14T03:14:06;5.40;99.90
34279;DHT22;20538;51.528;9.942;2023-12-14T03:16:31;5.30;99.90
34279;DHT22;20538;51.528;9.942;2023-12-14T03:18:57;5.30;99.90
34279;DHT22;20538;51.528;9.942;2023-12-14T03:21:23;5.40;99.90
34279;DHT22;20538;51.528;9.942;2023-12-14T03:23:50;5.40;99.90
34279;DHT22;20538;51.528;9.942;2023-12-14T03:26:15;5.20;99.90
34279;DHT22;20538;51.528;9.942;2023-12-14T03:28:41;5.20;99.90
34279;DHT22;20538;51.528;9.942;2023-12-14T03:31:07;5.20;99.90
34279;DHT22;20538;51.528;9.942;2023-12-14T03:33:35;5.30;99.90
34279;DHT22;20538;51.528;9.942;2023-12-14T03:36:02;5.20;99.90
34279;DHT22;20538;51.528;9.942;2023-12-14T03:38:28;5.10;99.90
34279;DHT22;20538;51.528;9.942;2023-12-14T03:40:53;5.10;99.90
34279;DHT22;20538;51.528;9.942;2023-12-14T03:43:19;5.10;99.90
34279;DHT22;20538;51.528;9.942;2023-12-14T03:45:44;5.30;99.90
34279;DHT22;20538;51.528;9.942;2023-12-14T03:48:11;5.20;99.90
34279;DHT22;20538;51.528;9.942;2023-12-14T03:50:36;5.20;99.90
34279;DHT22;20538;51.528;9.942;2023-12-14T03:53:02;5.10;99.90
34279;DHT22;20538;51.528;9.942;2023-12-14T03:55:28;5.10;99.90
34279;DHT22;20538;51.528;9.942;2023-12-14T03:57:53;5.00;99.90
34279;DHT22;20538;51.528;9.942;2023-12-14T04:00:19;5.10;99.90
34279;DHT22;20538;51.528;9.942;2023-12-14T04:02:44;5.00;99.90
34279;DHT22;20538;51.528;9.942;2023-12-14T04:05:10;5.00;99.90
34279;DHT22;20538;51.528;9.942;2023-12-14T04:07:39;5.00;99.90
34279;DHT22;20538;51.528;9.942;2023-12-14T04:10:15;5.00;99.90
34279;DHT22;20538;51.528;9.942;2023-12-14T04:12:41;5.00;99.90
34279;DHT22;20538;51.528;9.942;2023-12-14T04:15:08;5.00;99.90
34279;DHT22;20538;51.528;9.942;2023-12-14T04:17:34;5.00;99.90
34279;DHT22;20538;51.528;9.942;2023-12-14T04:20:01;5.00;99.90
34279;DHT22;20538;51.528;9.942;2023-12-14T04:22:28;5.00;99.90
34279;DHT22;20538;51.528;9.942;2023-12-14T04:24:54;4.90;99.90
34279;DHT22;20538;51.528;9.942;2023-12-14T04:27:19;5.00;99.90
34279;DHT22;20538;51.528;9.942;2023-12-14T04:29:45;4.90;99.90
34279;DHT22;20538;51.528;9.942;2023-12-14T04:32:11;4.90;99.90
34279;DHT22;20538;51.528;9.942;2023-12-14T04:34:37;4.90;99.90
34279;DHT22;20538;51.528;9.942;2023-12-14T04:37:03;5.00;99.90
34279;DHT22;20538;51.528;9.942;2023-12-14T04:39:28;5.00;99.90
34279;DHT22;20538;51.528;9.942;2023-12-14T04:41:54;5.00;99.90
34279;DHT22;20538;51.528;9.942;2023-12-14T04:44:21;4.80;99.90
34279;DHT22;20538;51.528;9.942;2023-12-14T04:46:49;4.70;99.90
34279;DHT22;20538;51.528;9.942;2023-12-14T04:49:16;4.70;99.90
34279;DHT22;20538;51.528;9.942;2023-12-14T04:51:41;4.60;99.90
34279;DHT22;20538;51.528;9.942;2023-12-14T04:54:07;4.60;99.90
34279;DHT22;20538;51.528;9.942;2023-12-14T04:56:33;4.70;99.90
34279;DHT22;20538;51.528;9.942;2023-12-14T04:58:59;4.70;99.90
34279;DHT22;20538;51.528;9.942;2023-12-14T05:01:24;4.60;99.90
34279;DHT22;20538;51.528;9.942;2023-12-14T05:03:52;4.70;99.90
34279;DHT22;20538;51.528;9.942;2023-12-14T05:06:18;4.60;99.90
34279;DHT22;20538;51.528;9.942;2023-12-14T05:08:43;4.60;99.90
34279;DHT22;20538;51.528;9.942;2023-12-14T05:11:09;4.60;99.90
34279;DHT22;20538;51.528;9.942;2023-12-14T05:13:34;4.60;99.90
34279;DHT22;20538;51.528;9.942;2023-12-14T05:16:00;4.70;99.90
34279;DHT22;20538;51.528;9.942;2023-12-14T05:18:27;4.70;99.90
34279;DHT22;20538;51.528;9.942;2023-12-14T05:20:52;4.70;99.90
34279;DHT22;20538;51.528;9.942;2023-12-14T05:23:18;4.60;99.90
34279;DHT22;20538;51.528;9.942;2023-12-14T05:25:44;4.60;99.90
34279;DHT22;20538;51.528;9.942;2023-12-14T05:28:10;4.60;99.90
34279;DHT22;20538;51.528;9.942;2023-12-14T05:30:35;4.60;99.90
34279;DHT22;20538;51.528;9.942;2023-12-14T05:33:01;4.60;99.90
34279;DHT22;20538;51.528;9.942;2023-12-14T05:35:27;4.50;99.90
34279;DHT22;20538;51.528;9.942;2023-12-14T05:37:52;4.50;99.90
34279;DHT22;20538;51.528;9.942;2023-12-14T05:40:18;4.50;99.90
34279;DHT22;20538;51.528;9.942;2023-12-14T05:42:44;4.60;99.90
34279;DHT22;20538;51.528;9.942;2023-12-14T05:45:10;4.60;99.90
34279;DHT22;20538;51.528;9.942;2023-12-14T05:47:35;4.50;99.90
34279;DHT22;20538;51.528;9.942;2023-12-14T05:50:01;4.50;99.90
34279;DHT22;20538;51.528;9.942;2023-12-14T05:52:28;4.40;99.90
34279;DHT22;20538;51.528;9.942;2023-12-14T05:54:53;4.60;99.90
34279;DHT22;20538;51.528;9.942;2023-12-14T05:57:19;4.50;99.90
34279;DHT22;20538;51.528;9.942;2023-12-14T05:59:44;4.40;99.90
34279;DHT22;20538;51.528;9.942;2023-12-14T06:02:10;4.30;99.90
34279;DHT22;20538;51.528;9.942;2023-12-14T06:04:36;4.40;99.90
34279;DHT22;20538;51.528;9.942;2023-12-14T06:07:01;4.40;99.90
34279;DHT22;20538;51.528;9.942;2023-12-14T06:09:27;4.30;99.90
34279;DHT22;20538;51.528;9.942;2023-12-14T06:12:01;4.30;99.90
34279;DHT22;20538;51.528;9.942;2023-12-14T06:14:27;4.40;99.90
34279;DHT22;20538;51.528;9.942;2023-12-14T06:16:53;4.40;99.90
34279;DHT22;20538;51.528;9.942;2023-12-14T06:19:18;4.40;99.90
34279;DHT22;20538;51.528;9.942;2023-12-14T06:21:44;4.40;99.90
34279;DHT22;20538;51.528;9.942;2023-12-14T06:24:10;4.30;99.90
34279;DHT22;20538;51.528;9.942;2023-12-14T06:26:43;4.40;99.90
34279;DHT22;20538;51.528;9.942;2023-12-14T06:29:09;4.30;99.90
34279;DHT22;20538;51.528;9.942;2023-12-14T06:31:35;4.20;99.90
34279;DHT22;20538;51.528;9.942;2023-12-14T06:34:01;4.20;99.90
34279;DHT22;20538;51.528;9.942;2023-12-14T06:36:30;4.10;99.90
34279;DHT22;20538;51.528;9.942;2023-12-14T06:39:02;4.00;99.90
34279;DHT22;20538;51.528;9.942;2023-12-14T06:41:37;4.10;99.90
34279;DHT22;20538;51.528;9.942;2023-12-14T06:44:04;4.20;99.90
34279;DHT22;20538;51.528;9.942;2023-12-14T06:46:29;4.20;99.90
34279;DHT22;20538;51.528;9.942;2023-12-14T06:48:55;4.10;99.90
34279;DHT22;20538;51.528;9.942;2023-12-14T06:51:21;4.00;99.90
34279;DHT22;20538;51.528;9.942;2023-12-14T06:53:48;4.00;99.90
34279;DHT22;20538;51.528;9.942;2023-12-14T06:56:14;4.00;99.90
34279;DHT22;20538;51.528;9.942;2023-12-14T06:58:41;4.00;99.90
34279;DHT22;20538;51.528;9.942;2023-12-14T07:01:08;4.10;99.90
34279;DHT22;20538;51.528;9.942;2023-12-14T07:03:40;4.20;99.90
34279;DHT22;20538;51.528;9.942;2023-12-14T07:06:06;4.30;99.90
34279;DHT22;20538;51.528;9.942;2023-12-14T07:08:32;4.10;99.90
34279;DHT22;20538;51.528;9.942;2023-12-14T07:10:57;4.20;99.90
34279;DHT22;20538;51.528;9.942;2023-12-14T07:13:23;4.10;99.90
34279;DHT22;20538;51.528;9.942;2023-12-14T07:15:48;4.20;99.90
34279;DHT22;20538;51.528;9.942;2023-12-14T07:18:14;4.20;99.90
34279;DHT22;20538;51.528;9.942;2023-12-14T07:20:40;4.00;99.90
34279;DHT22;20538;51.528;9.942;2023-12-14T07:23:05;4.20;99.90
34279;DHT22;20538;51.528;9.942;2023-12-14T07:25:31;4.10;99.90
34279;DHT22;20538;51.528;9.942;2023-12-14T07:27:56;4.10;99.90
34279;DHT22;20538;51.528;9.942;2023-12-14T07:30:22;4.10;99.90
34279;DHT22;20538;51.528;9.942;2023-12-14T07:32:48;4.20;99.90
34279;DHT22;20538;51.528;9.942;2023-12-14T07:35:13;4.10;99.90
34279;DHT22;20538;51.528;9.942;2023-12-14T07:37:39;4.10;99.90
34279;DHT22;20538;51.528;9.942;2023-12-14T07:40:05;4.00;99.90
34279;DHT22;20538;51.528;9.942;2023-12-14T07:42:31;4.00;99.90
34279;DHT22;20538;51.528;9.942;2023-12-14T07:44:57;3.90;99.90
34279;DHT22;20538;51.528;9.942;2023-12-14T07:47:22;3.90;99.90
34279;DHT22;20538;51.528;9.942;2023-12-14T07:49:48;4.00;99.90
34279;DHT22;20538;51.528;9.942;2023-12-14T07:52:14;4.10;99.90
34279;DHT22;20538;51.528;9.942;2023-12-14T07:54:40;4.10;99.90
34279;DHT22;20538;51.528;9.942;2023-12-14T07:57:05;4.10;99.90
34279;DHT22;20538;51.528;9.942;2023-12-14T07:59:31;4.10;99.90
34279;DHT22;20538;51.528;9.942;2023-12-14T08:01:56;4.10;99.90
34279;DHT22;20538;51.528;9.942;2023-12-14T08:04:22;4.10;99.90
34279;DHT22;20538;51.528;9.942;2023-12-14T08:06:49;4.10;99.90
34279;DHT22;20538;51.528;9.942;2023-12-14T08:09:14;4.10;99.90
34279;DHT22;20538;51.528;9.942;2023-12-14T08:11:40;4.30;99.90
34279;DHT22;20538;51.528;9.942;2023-12-14T08:14:06;4.40;99.90
34279;DHT22;20538;51.528;9.942;2023-12-14T08:16:31;4.50;99.90
34279;DHT22;20538;51.528;9.942;2023-12-14T08:18:57;4.50;99.90
34279;DHT22;20538;51.528;9.942;2023-12-14T08:21:23;4.30;99.90
34279;DHT22;20538;51.528;9.942;2023-12-14T08:23:48;4.40;99.90
34279;DHT22;20538;51.528;9.942;2023-12-14T08:26:14;4.20;99.90
34279;DHT22;20538;51.528;9.942;2023-12-14T08:28:40;4.20;99.90
34279;DHT22;20538;51.528;9.942;2023-12-14T08:31:06;4.30;99.90
34279;DHT22;20538;51.528;9.942;2023-12-14T08:33:32;4.30;99.90
34279;DHT22;20538;51.528;9.942;2023-12-14T08:35:57;4.30;99.90
34279;DHT22;20538;51.528;9.942;2023-12-14T08:38:23;4.20;99.90
34279;DHT22;20538;51.528;9.942;2023-12-14T08:40:49;4.20;99.90
34279;DHT22;20538;51.528;9.942;2023-12-14T08:43:15;4.20;99.90
34279;DHT22;20538;51.528;9.942;2023-12-14T08:45:40;4.40;99.90
34279;DHT22;20538;51.528;9.942;2023-12-14T08:48:06;4.30;99.90
34279;DHT22;20538;51.528;9.942;2023-12-14T08:50:32;4.40;99.90
34279;DHT22;20538;51.528;9.942;2023-12-14T08:52:57;4.50;99.90
34279;DHT22;20538;51.528;9.942;2023-12-14T08:55:27;4.40;99.90
34279;DHT22;20538;51.528;9.942;2023-12-14T08:57:53;4.40;99.90
34279;DHT22;20538;51.528;9.942;2023-12-14T09:00:19;4.40;99.90
34279;DHT22;20538;51.528;9.942;2023-12-14T09:02:47;4.30;99.90
34279;DHT22;20538;51.528;9.942;2023-12-14T09:05:13;4.30;99.90
34279;DHT22;20538;51.528;9.942;2023-12-14T09:07:39;4.20;99.90
34279;DHT22;20538;51.528;9.942;2023-12-14T09:10:05;4.20;99.90
34279;DHT22;20538;51.528;9.942;2023-12-14T09:12:33;4.10;99.90
34279;DHT22;20538;51.528;9.942;2023-12-14T09:15:00;4.30;99.90
34279;DHT22;20538;51.528;9.942;2023-12-14T09:17:25;4.30;99.90
34279;DHT22;20538;51.528;9.942;2023-12-14T09:19:51;4.10;99.90
34279;DHT22;20538;51.528;9.942;2023-12-14T09:22:17;4.10;99.90
34279;DHT22;20538;51.528;9.942;2023-12-14T09:24:43;4.10;99.90
34279;DHT22;20538;51.528;9.942;2023-12-14T09:27:09;4.10;99.90
34279;DHT22;20538;51.528;9.942;2023-12-14T09:29:34;4.10;99.90
34279;DHT22;20538;51.528;9.942;2023-12-14T09:32:00;4.30;99.90
34279;DHT22;20538;51.528;9.942;2023-12-14T09:34:26;4.30;99.90
34279;DHT22;20538;51.528;9.942;2023-12-14T09:36:51;4.30;99.90
34279;DHT22;20538;51.528;9.942;2023-12-14T09:39:17;4.10;99.90
34279;DHT22;20538;51.528;9.942;2023-12-14T09:41:44;4.10;99.90
34279;DHT22;20538;51.528;9.942;2023-12-14T09:44:12;4.10;99.90
34279;DHT22;20538;51.528;9.942;2023-12-14T09:46:38;4.20;99.90
34279;DHT22;20538;51.528;9.942;2023-12-14T09:49:04;4.10;99.90
34279;DHT22;20538;51.528;9.942;2023-12-14T09:51:31;4.00;99.90
34279;DHT22;20538;51.528;9.942;2023-12-14T09:53:56;3.90;99.90
34279;DHT22;20538;51.528;9.942;2023-12-14T09:56:26;3.90;99.90
34279;DHT22;20538;51.528;9.942;2023-12-14T09:58:52;3.90;99.90
34279;DHT22;20538;51.528;9.942;2023-12-14T10:01:25;3.80;99.90
34279;DHT22;20538;51.528;9.942;2023-12-14T10:04:11;3.80;99.90
34279;DHT22;20538;51.528;9.942;2023-12-14T10:06:42;3.90;99.90
34279;DHT22;20538;51.528;9.942;2023-12-14T10:09:08;3.80;99.90
34279;DHT22;20538;51.528;9.942;2023-12-14T10:11:44;3.90;99.90
34279;DHT22;20538;51.528;9.942;2023-12-14T10:16:43;3.90;99.90
34279;DHT22;20538;51.528;9.942;2023-12-14T10:19:08;3.90;99.90
34279;DHT22;20538;51.528;9.942;2023-12-14T10:21:35;3.90;99.90
34279;DHT22;20538;51.528;9.942;2023-12-14T10:24:01;4.00;99.90
34279;DHT22;20538;51.528;9.942;2023-12-14T10:26:27;4.00;99.90
34279;DHT22;20538;51.528;9.942;2023-12-14T10:28:53;4.00;99.90
34279;DHT22;20538;51.528;9.942;2023-12-14T10:31:19;4.10;99.90
34279;DHT22;20538;51.528;9.942;2023-12-14T10:33:48;4.20;99.90
34279;DHT22;20538;51.528;9.942;2023-12-14T10:36:16;4.10;99.90
34279;DHT22;20538;51.528;9.942;2023-12-14T10:38:43;4.10;99.90
34279;DHT22;20538;51.528;9.942;2023-12-14T10:41:11;4.00;99.90
34279;DHT22;20538;51.528;9.942;2023-12-14T10:43:39;4.10;99.90
34279;DHT22;20538;51.528;9.942;2023-12-14T10:46:07;4.30;99.90
34279;DHT22;20538;51.528;9.942;2023-12-14T10:48:35;4.30;99.90
34279;DHT22;20538;51.528;9.942;2023-12-14T10:51:03;4.30;99.90
34279;DHT22;20538;51.528;9.942;2023-12-14T10:53:32;4.30;99.90
34279;DHT22;20538;51.528;9.942;2023-12-14T10:55:59;4.30;99.90
34279;DHT22;20538;51.528;9.942;2023-12-14T10:58:25;4.30;99.90
34279;DHT22;20538;51.528;9.942;2023-12-14T11:01:00;4.30;99.90
34279;DHT22;20538;51.528;9.942;2023-12-14T11:03:40;4.30;99.90
34279;DHT22;20538;51.528;9.942;2023-12-14T11:06:30;4.30;99.90
34279;DHT22;20538;51.528;9.942;2023-12-14T11:09:01;4.40;99.90
34279;DHT22;20538;51.528;9.942;2023-12-14T11:11:47;4.40;99.90
34279;DHT22;20538;51.528;9.942;2023-12-14T11:14:13;4.40;99.90
34279;DHT22;20538;51.528;9.942;2023-12-14T11:16:39;4.40;99.90
34279;DHT22;20538;51.528;9.942;2023-12-14T11:21:47;4.30;99.90
34279;DHT22;20538;51.528;9.942;2023-12-14T11:24:13;4.40;99.90
34279;DHT22;20538;51.528;9.942;2023-12-14T11:26:40;4.50;99.90
34279;DHT22;20538;51.528;9.942;2023-12-14T11:29:06;4.60;99.90
34279;DHT22;20538;51.528;9.942;2023-12-14T11:31:32;4.60;99.90
34279;DHT22;20538;51.528;9.942;2023-12-14T11:33:59;4.60;99.90
34279;DHT22;20538;51.528;9.942;2023-12-14T11:36:26;4.60;99.90
34279;DHT22;20538;51.528;9.942;2023-12-14T11:38:52;4.60;99.90
34279;DHT22;20538;51.528;9.942;2023-12-14T11:41:21;4.60;99.90
34279;DHT22;20538;51.528;9.942;2023-12-14T11:43:46;4.50;99.90
34279;DHT22;20538;51.528;9.942;2023-12-14T11:46:12;4.40;99.90
34279;DHT22;20538;51.528;9.942;2023-12-14T11:48:39;4.50;99.90
34279;DHT22;20538;51.528;9.942;2023-12-14T11:51:05;4.60;99.90
34279;DHT22;20538;51.528;9.942;2023-12-14T11:53:31;4.50;99.90
34279;DHT22;20538;51.528;9.942;2023-12-14T11:55:59;4.50;99.90
34279;DHT22;20538;51.528;9.942;2023-12-14T11:58:28;4.50;99.90
34279;DHT22;20538;51.528;9.942;2023-12-14T12:00:53;4.40;99.90
34279;DHT22;20538;51.528;9.942;2023-12-14T12:03:20;4.40;99.90
34279;DHT22;20538;51.528;9.942;2023-12-14T12:05:50;4.40;99.90
34279;DHT22;20538;51.528;9.942;2023-12-14T12:08:20;4.40;99.90
34279;DHT22;20538;51.528;9.942;2023-12-14T12:10:46;4.50;99.90
34279;DHT22;20538;51.528;9.942;2023-12-14T12:13:16;4.50;99.90
34279;DHT22;20538;51.528;9.942;2023-12-14T12:15:42;4.50;99.90
34279;DHT22;20538;51.528;9.942;2023-12-14T12:18:09;4.50;99.90
34279;DHT22;20538;51.528;9.942;2023-12-14T12:20:35;4.50;99.90
34279;DHT22;20538;51.528;9.942;2023-12-14T12:23:02;4.30;99.90
34279;DHT22;20538;51.528;9.942;2023-12-14T12:25:29;4.20;99.90
34279;DHT22;20538;51.528;9.942;2023-12-14T12:27:56;4.30;99.90
34279;DHT22;20538;51.528;9.942;2023-12-14T12:30:22;4.30;99.90
34279;DHT22;20538;51.528;9.942;2023-12-14T12:32:49;4.30;99.90
34279;DHT22;20538;51.528;9.942;2023-12-14T12:35:16;4.40;99.90
34279;DHT22;20538;51.528;9.942;2023-12-14T12:37:42;4.40;99.90
34279;DHT22;20538;51.528;9.942;2023-12-14T12:40:08;4.50;99.90
34279;DHT22;20538;51.528;9.942;2023-12-14T12:42:34;4.60;99.90
34279;DHT22;20538;51.528;9.942;2023-12-14T12:45:00;4.60;99.90
34279;DHT22;20538;51.528;9.942;2023-12-14T12:47:26;4.40;99.90
34279;DHT22;20538;51.528;9.942;2023-12-14T12:49:51;4.40;99.90
34279;DHT22;20538;51.528;9.942;2023-12-14T12:52:17;4.40;99.90
34279;DHT22;20538;51.528;9.942;2023-12-14T12:54:43;4.50;99.90
34279;DHT22;20538;51.528;9.942;2023-12-14T12:57:09;4.50;99.90
34279;DHT22;20538;51.528;9.942;2023-12-14T12:59:34;4.60;99.90
34279;DHT22;20538;51.528;9.942;2023-12-14T13:02:00;4.50;99.90
34279;DHT22;20538;51.528;9.942;2023-12-14T13:04:28;4.50;99.90
34279;DHT22;20538;51.528;9.942;2023-12-14T13:06:56;4.60;99.90
34279;DHT22;20538;51.528;9.942;2023-12-14T13:09:21;4.50;99.90
34279;DHT22;20538;51.528;9.942;2023-12-14T13:11:48;4.40;99.90
34279;DHT22;20538;51.528;9.942;2023-12-14T13:14:16;4.40;99.90
34279;DHT22;20538;51.528;9.942;2023-12-14T13:16:43;4.50;99.90
34279;DHT22;20538;51.528;9.942;2023-12-14T13:19:09;4.60;99.90
34279;DHT22;20538;51.528;9.942;2023-12-14T13:21:35;4.60;99.90
34279;DHT22;20538;51.528;9.942;2023-12-14T13:24:01;4.70;99.90
34279;DHT22;20538;51.528;9.942;2023-12-14T13:26:27;4.70;99.90
34279;DHT22;20538;51.528;9.942;2023-12-14T13:28:53;4.60;99.90
34279;DHT22;20538;51.528;9.942;2023-12-14T13:31:19;4.50;99.90
34279;DHT22;20538;51.528;9.942;2023-12-14T13:33:46;4.50;99.90
34279;DHT22;20538;51.528;9.942;2023-12-14T13:36:12;4.50;99.90
34279;DHT22;20538;51.528;9.942;2023-12-14T13:38:37;4.50;99.90
34279;DHT22;20538;51.528;9.942;2023-12-14T13:41:03;4.50;99.90
34279;DHT22;20538;51.528;9.942;2023-12-14T13:43:29;4.40;99.90
34279;DHT22;20538;51.528;9.942;2023-12-14T13:45:55;4.40;99.90
34279;DHT22;20538;51.528;9.942;2023-12-14T13:48:25;4.40;99.90
34279;DHT22;20538;51.528;9.942;2023-12-14T13:50:50;4.50;99.90
34279;DHT22;20538;51.528;9.942;2023-12-14T13:53:19;4.40;99.90
34279;DHT22;20538;51.528;9.942;2023-12-14T13:55:45;4.40;99.90
34279;DHT22;20538;51.528;9.942;2023-12-14T13:58:12;4.40;99.90
34279;DHT22;20538;51.528;9.942;2023-12-14T14:00:37;4.50;99.90
34279;DHT22;20538;51.528;9.942;2023-12-14T14:03:04;4.40;99.90
34279;DHT22;20538;51.528;9.942;2023-12-14T14:05:31;4.40;99.90
34279;DHT22;20538;51.528;9.942;2023-12-14T14:07:57;4.40;99.90
34279;DHT22;20538;51.528;9.942;2023-12-14T14:10:23;4.40;99.90
34279;DHT22;20538;51.528;9.942;2023-12-14T14:12:49;4.40;99.90
34279;DHT22;20538;51.528;9.942;2023-12-14T14:15:15;4.30;99.90
34279;DHT22;20538;51.528;9.942;2023-12-14T14:17:40;4.40;99.90
34279;DHT22;20538;51.528;9.942;2023-12-14T14:20:06;4.30;99.90
34279;DHT22;20538;51.528;9.942;2023-12-14T14:22:33;4.40;99.90
34279;DHT22;20538;51.528;9.942;2023-12-14T14:24:59;4.30;99.90
34279;DHT22;20538;51.528;9.942;2023-12-14T14:27:25;4.40;99.90
34279;DHT22;20538;51.528;9.942;2023-12-14T14:29:51;4.40;99.90
34279;DHT22;20538;51.528;9.942;2023-12-14T14:32:19;4.40;99.90
34279;DHT22;20538;51.528;9.942;2023-12-14T14:34:45;4.50;99.90
34279;DHT22;20538;51.528;9.942;2023-12-14T14:37:10;4.40;99.90
34279;DHT22;20538;51.528;9.942;2023-12-14T14:39:36;4.50;99.90
34279;DHT22;20538;51.528;9.942;2023-12-14T14:42:05;4.50;99.90
34279;DHT22;20538;51.528;9.942;2023-12-14T14:44:30;4.50;99.90
34279;DHT22;20538;51.528;9.942;2023-12-14T14:46:56;4.50;99.90
34279;DHT22;20538;51.528;9.942;2023-12-14T14:49:22;4.50;99.90
34279;DHT22;20538;51.528;9.942;2023-12-14T14:51:47;4.50;99.90
34279;DHT22;20538;51.528;9.942;2023-12-14T14:54:13;4.40;99.90
34279;DHT22;20538;51.528;9.942;2023-12-14T14:56:40;4.40;99.90
34279;DHT22;20538;51.528;9.942;2023-12-14T14:59:06;4.40;99.90
34279;DHT22;20538;51.528;9.942;2023-12-14T15:01:32;4.30;99.90
34279;DHT22;20538;51.528;9.942;2023-12-14T15:03:58;4.20;99.90
34279;DHT22;20538;51.528;9.942;2023-12-14T15:06:25;4.20;99.90
34279;DHT22;20538;51.528;9.942;2023-12-14T15:08:50;4.20;99.90
34279;DHT22;20538;51.528;9.942;2023-12-14T15:11:16;4.30;99.90
34279;DHT22;20538;51.528;9.942;2023-12-14T15:13:42;4.20;99.90
34279;DHT22;20538;51.528;9.942;2023-12-14T15:16:07;4.30;99.90
34279;DHT22;20538;51.528;9.942;2023-12-14T15:18:33;4.30;99.90
34279;DHT22;20538;51.528;9.942;2023-12-14T15:21:07;4.30;99.90
34279;DHT22;20538;51.528;9.942;2023-12-14T15:23:32;4.20;99.90
34279;DHT22;20538;51.528;9.942;2023-12-14T15:25:58;4.30;99.90
34279;DHT22;20538;51.528;9.942;2023-12-14T15:28:24;4.30;99.90
34279;DHT22;20538;51.528;9.942;2023-12-14T15:30:49;4.20;99.90
34279;DHT22;20538;51.528;9.942;2023-12-14T15:33:15;4.10;99.90
34279;DHT22;20538;51.528;9.942;2023-12-14T15:35:40;4.10;99.90
34279;DHT22;20538;51.528;9.942;2023-12-14T15:38:06;4.20;99.90
34279;DHT22;20538;51.528;9.942;2023-12-14T15:40:32;4.10;99.90
34279;DHT22;20538;51.528;9.942;2023-12-14T15:42:57;4.10;99.90
34279;DHT22;20538;51.528;9.942;2023-12-14T15:45:23;4.10;99.90